Time;durP1;ratioP1;P1;durP2;ratioP2;P2;SDS_P1;SDS_P2;PMS_P1;PMS_P2;Temp;Humidity;BMP_temperature;BMP_pressure;BME280_temperature;BME280_humidity;BME280_pressure;Samples;Min_cycle;Max_cycle;Signal;HPM_P1;HPM_P2
2022/05/15 00:01:11;;;;;;;9.80;4.00;;;15.40;67.60;;;;;;5074126;28;21033;-72
2022/05/15 00:03:41;;;;;;;7.30;3.47;;;15.50;67.50;;;;;;5077038;28;20473;-71
2022/05/15 00:06:11;;;;;;;8.33;3.77;;;15.50;67.30;;;;;;5059392;28;20453;-72
2022/05/15 00:08:39;;;;;;;7.00;3.10;;;15.50;67.20;;;;;;5065455;28;20473;-72
2022/05/15 00:11:09;;;;;;;6.23;3.50;;;15.50;67.30;;;;;;5071422;28;20468;-71
2022/05/15 00:13:38;;;;;;;6.97;3.40;;;15.50;67.10;;;;;;5071573;28;20481;-71
2022/05/15 00:16:07;;;;;;;9.00;4.10;;;15.50;67.00;;;;;;5068521;28;20478;-71
2022/05/15 00:18:35;;;;;;;5.90;3.70;;;15.50;67.00;;;;;;5071656;28;20497;-71
2022/05/15 00:21:04;;;;;;;7.60;3.40;;;15.50;66.90;;;;;;5071021;28;20460;-71
2022/05/15 00:23:32;;;;;;;8.80;3.83;;;15.40;67.00;;;;;;5072452;28;20490;-71
2022/05/15 00:26:00;;;;;;;7.40;3.30;;;15.50;67.00;;;;;;5069404;28;20462;-71
2022/05/15 00:28:28;;;;;;;7.20;3.63;;;15.40;66.90;;;;;;5075481;28;20442;-71
2022/05/15 00:30:56;;;;;;;8.47;4.10;;;15.40;66.80;;;;;;5053774;28;20472;-71
2022/05/15 00:33:24;;;;;;;7.40;4.10;;;15.40;66.80;;;;;;5055722;28;20493;-71
2022/05/15 00:35:53;;;;;;;8.60;3.90;;;15.40;66.90;;;;;;5072736;28;20466;-71
2022/05/15 00:38:23;;;;;;;5.77;3.40;;;15.40;66.90;;;;;;5069956;28;20465;-71
2022/05/15 00:40:52;;;;;;;7.40;3.67;;;15.30;66.90;;;;;;5073220;28;20536;-71
2022/05/15 00:43:39;;;;;;;7.10;3.70;;;15.30;66.90;;;;;;5065970;28;20482;-71
2022/05/15 00:46:10;;;;;;;6.00;3.80;;;15.40;66.90;;;;;;5065321;28;20474;-71
2022/05/15 00:48:39;;;;;;;9.13;4.40;;;15.30;66.90;;;;;;5067985;28;20501;-71
2022/05/15 00:51:13;;;;;;;9.10;3.80;;;15.30;66.80;;;;;;5070327;28;20484;-71
2022/05/15 00:53:43;;;;;;;7.67;4.30;;;15.30;66.90;;;;;;5069661;28;20473;-71
2022/05/15 00:56:13;;;;;;;10.70;5.97;;;15.30;66.80;;;;;;5072430;28;20450;-71
2022/05/15 00:58:46;;;;;;;11.87;6.50;;;15.20;66.80;;;;;;5063404;28;20841;-71
2022/05/15 01:01:18;;;;;;;13.00;7.00;;;15.20;66.90;;;;;;5055719;28;20535;-71
2022/05/15 01:03:47;;;;;;;14.73;7.77;;;15.20;66.80;;;;;;5056884;28;20561;-71
2022/05/15 01:06:15;;;;;;;8.20;5.40;;;15.20;66.70;;;;;;5058457;28;20469;-71
2022/05/15 01:08:45;;;;;;;12.10;5.37;;;15.10;66.60;;;;;;5051759;28;20461;-71
2022/05/15 01:11:17;;;;;;;11.47;6.10;;;15.10;66.70;;;;;;5058460;28;20450;-71
2022/05/15 01:13:48;;;;;;;8.70;4.40;;;15.00;66.80;;;;;;5059622;28;20539;-71
2022/05/15 01:16:20;;;;;;;7.90;4.90;;;15.00;66.60;;;;;;5076664;28;20533;-71
2022/05/15 01:18:49;;;;;;;11.40;5.10;;;14.90;66.70;;;;;;5075163;28;21078;-71
2022/05/15 01:21:27;;;;;;;9.97;5.00;;;14.80;66.80;;;;;;5071696;28;20458;-71
2022/05/15 01:23:57;;;;;;;8.90;5.20;;;14.80;66.90;;;;;;5053142;28;20482;-71
2022/05/15 01:26:26;;;;;;;9.93;5.60;;;14.70;66.80;;;;;;5056178;28;20539;-71
2022/05/15 01:28:57;;;;;;;12.43;7.20;;;14.60;66.80;;;;;;5056919;28;21054;-71
2022/05/15 01:31:25;;;;;;;9.03;6.03;;;14.60;66.90;;;;;;5054002;28;20817;-71
2022/05/15 01:33:55;;;;;;;10.93;5.93;;;14.60;67.00;;;;;;5055811;28;20485;-71
2022/05/15 01:36:25;;;;;;;9.50;5.50;;;14.60;67.20;;;;;;5053677;28;20960;-71
2022/05/15 01:38:54;;;;;;;9.70;5.50;;;14.60;67.10;;;;;;5055809;28;20884;-71
2022/05/15 01:41:23;;;;;;;8.00;5.00;;;14.60;67.10;;;;;;5058052;28;21284;-71
2022/05/15 01:43:53;;;;;;;8.70;4.80;;;14.60;67.20;;;;;;5065032;28;20494;-71
2022/05/15 01:46:25;;;;;;;8.83;5.70;;;14.60;67.20;;;;;;5047535;28;20502;-71
2022/05/15 01:48:55;;;;;;;7.63;4.17;;;14.60;67.20;;;;;;5051697;28;20468;-71
2022/05/15 01:51:26;;;;;;;7.13;4.23;;;14.60;67.20;;;;;;5053679;28;20463;-71
2022/05/15 01:53:54;;;;;;;12.03;4.73;;;14.50;67.00;;;;;;5074943;28;20516;-71
2022/05/15 01:56:22;;;;;;;8.50;4.10;;;14.50;67.20;;;;;;5069675;28;20981;-71
2022/05/15 01:58:51;;;;;;;7.20;4.53;;;14.50;67.30;;;;;;5048459;28;20509;-71
2022/05/15 02:01:20;;;;;;;7.33;4.37;;;14.50;67.30;;;;;;5049873;28;20482;-70
2022/05/15 02:03:48;;;;;;;8.60;4.10;;;14.50;67.30;;;;;;5047171;28;20491;-71
2022/05/15 02:06:17;;;;;;;7.73;4.20;;;14.50;67.30;;;;;;5054089;28;20458;-70
2022/05/15 02:08:47;;;;;;;6.80;4.30;;;14.50;67.30;;;;;;5054664;28;21131;-70
2022/05/15 02:11:16;;;;;;;10.17;6.00;;;14.50;67.30;;;;;;5050408;28;20464;-70
2022/05/15 02:13:44;;;;;;;8.10;4.33;;;14.50;67.30;;;;;;5050064;28;21065;-72
2022/05/15 02:16:13;;;;;;;7.23;3.87;;;14.50;67.30;;;;;;5054459;28;20480;-72
2022/05/15 02:18:41;;;;;;;6.33;3.60;;;14.50;67.20;;;;;;5071447;28;20489;-72
2022/05/15 02:21:09;;;;;;;8.63;4.30;;;14.50;67.10;;;;;;5054031;28;20879;-70
2022/05/15 02:23:38;;;;;;;6.57;4.10;;;14.50;67.00;;;;;;5050810;28;21521;-70
2022/05/15 02:26:08;;;;;;;6.20;4.17;;;14.40;67.00;;;;;;5050021;28;20457;-70
2022/05/15 02:28:37;;;;;;;7.87;4.43;;;14.40;67.20;;;;;;5068106;28;20488;-70
2022/05/15 02:31:07;;;;;;;8.03;4.73;;;14.40;67.20;;;;;;5056933;28;20553;-72
2022/05/15 02:33:36;;;;;;;9.03;4.60;;;14.30;67.10;;;;;;5055269;28;21164;-71
2022/05/15 02:36:05;;;;;;;7.00;4.30;;;14.30;67.00;;;;;;5059873;28;21170;-70
2022/05/15 02:38:34;;;;;;;6.67;4.27;;;14.20;67.10;;;;;;5060775;28;21063;-72
2022/05/15 02:41:02;;;;;;;7.30;4.00;;;14.20;67.00;;;;;;5058630;28;20464;-70
2022/05/15 02:43:32;;;;;;;8.23;4.17;;;14.10;67.00;;;;;;5057610;28;20516;-70
2022/05/15 02:46:00;;;;;;;9.33;4.10;;;14.10;67.10;;;;;;5060637;28;20556;-70
2022/05/15 02:51:15;;;;;;;7.13;3.80;;;14.00;67.10;;;;;;5057620;28;20469;-70
2022/05/15 02:53:45;;;;;;;6.70;3.60;;;14.00;67.20;;;;;;5068735;28;20479;-70
2022/05/15 02:56:16;;;;;;;7.63;4.10;;;13.90;67.10;;;;;;5055482;28;20461;-70
2022/05/15 02:58:45;;;;;;;7.67;3.80;;;13.90;67.20;;;;;;5053966;28;20472;-70
2022/05/15 03:01:14;;;;;;;7.20;4.43;;;13.90;67.30;;;;;;5066427;28;20585;-70
2022/05/15 03:03:42;;;;;;;7.50;5.13;;;13.90;67.30;;;;;;5051326;28;20834;-70
2022/05/15 03:06:11;;;;;;;8.87;5.00;;;13.90;67.30;;;;;;5056171;28;20906;-70
2022/05/15 03:08:42;;;;;;;12.03;4.93;;;13.90;67.30;;;;;;5072448;28;20459;-70
2022/05/15 03:11:11;;;;;;;8.27;4.60;;;13.90;67.40;;;;;;5068837;28;20470;-70
2022/05/15 03:13:41;;;;;;;7.43;4.60;;;13.90;67.40;;;;;;5066732;28;21004;-70
2022/05/15 03:16:12;;;;;;;6.23;3.70;;;13.90;67.40;;;;;;5054378;28;20478;-70
2022/05/15 03:18:43;;;;;;;8.90;6.17;;;13.90;67.40;;;;;;5071115;28;22156;-70
2022/05/15 03:21:13;;;;;;;8.30;4.53;;;13.90;67.40;;;;;;5067492;28;20529;-70
2022/05/15 03:23:40;;;;;;;8.27;4.53;;;13.90;67.40;;;;;;5054135;28;20555;-73
2022/05/15 03:26:09;;;;;;;9.60;5.10;;;13.90;67.10;;;;;;5053831;28;20552;-70
2022/05/15 03:28:43;;;;;;;8.50;4.67;;;13.80;67.10;;;;;;5071094;28;20855;-72
2022/05/15 03:31:13;;;;;;;9.37;4.57;;;13.70;67.40;;;;;;5063206;28;20473;-72
2022/05/15 03:33:41;;;;;;;9.27;4.70;;;13.70;67.30;;;;;;5052474;28;20573;-71
2022/05/15 03:36:11;;;;;;;14.87;4.73;;;13.60;67.30;;;;;;5070136;28;20468;-70
2022/05/15 03:38:40;;;;;;;6.90;4.30;;;13.50;67.30;;;;;;5056420;28;20461;-71
2022/05/15 03:41:08;;;;;;;6.90;4.40;;;13.50;67.40;;;;;;5070591;28;20524;-70
2022/05/15 03:43:37;;;;;;;7.07;4.30;;;13.40;67.50;;;;;;5057747;28;20498;-71
2022/05/15 03:46:06;;;;;;;7.43;4.20;;;13.40;67.50;;;;;;5056980;28;20505;-70
2022/05/15 03:48:36;;;;;;;8.50;3.80;;;13.40;67.60;;;;;;5075491;28;20479;-70
2022/05/15 03:51:05;;;;;;;6.97;3.67;;;13.30;67.60;;;;;;5079879;28;20453;-72
2022/05/15 03:53:34;;;;;;;7.43;3.90;;;13.30;67.70;;;;;;5077945;28;20628;-72
2022/05/15 03:56:03;;;;;;;7.80;3.60;;;13.30;67.80;;;;;;5081202;28;20918;-73
2022/05/15 03:58:35;;;;;;;8.77;3.73;;;13.30;68.00;;;;;;5067215;28;20585;-73
2022/05/15 04:01:04;;;;;;;9.20;3.70;;;13.30;68.00;;;;;;5064189;28;20481;-72
2022/05/15 04:03:33;;;;;;;8.07;4.27;;;13.40;68.00;;;;;;5076075;28;20491;-72
2022/05/15 04:06:03;;;;;;;8.67;3.83;;;13.40;68.10;;;;;;5068633;28;20508;-72
2022/05/15 04:08:31;;;;;;;6.70;4.40;;;13.40;68.00;;;;;;5068067;28;20536;-72
2022/05/15 04:10:59;;;;;;;6.97;3.90;;;13.40;68.00;;;;;;5073611;28;20546;-72
2022/05/15 04:13:27;;;;;;;5.80;3.90;;;13.50;68.10;;;;;;5059887;28;21053;-72
2022/05/15 04:15:55;;;;;;;7.83;4.00;;;13.50;68.20;;;;;;5071405;28;20476;-72
2022/05/15 04:18:23;;;;;;;7.53;4.23;;;13.50;68.20;;;;;;5068256;28;21016;-72
2022/05/15 04:20:52;;;;;;;7.17;3.90;;;13.60;68.20;;;;;;5054078;28;20533;-72
2022/05/15 04:23:21;;;;;;;8.40;3.30;;;13.60;68.20;;;;;;5056845;28;21002;-72
2022/05/15 04:25:49;;;;;;;9.30;3.50;;;13.70;68.20;;;;;;5076391;28;20442;-71
2022/05/15 04:28:17;;;;;;;7.57;3.70;;;13.70;68.20;;;;;;5055893;28;20616;-71
2022/05/15 04:30:45;;;;;;;10.00;4.00;;;13.70;68.20;;;;;;5078044;28;20486;-71
2022/05/15 04:33:13;;;;;;;6.53;3.73;;;13.80;68.20;;;;;;5057110;28;20476;-71
2022/05/15 04:35:41;;;;;;;9.47;4.30;;;13.90;68.20;;;;;;5069986;28;20462;-71
2022/05/15 04:38:10;;;;;;;10.03;4.23;;;13.90;68.10;;;;;;5074571;28;20456;-71
2022/05/15 04:40:39;;;;;;;7.30;3.47;;;13.90;68.20;;;;;;5074358;28;20466;-72
2022/05/15 04:43:08;;;;;;;7.20;4.10;;;14.00;68.40;;;;;;5077802;28;20475;-72
2022/05/15 04:45:35;;;;;;;6.80;3.17;;;14.10;68.60;;;;;;5072585;28;20486;-72
2022/05/15 04:48:04;;;;;;;8.87;4.07;;;14.30;68.60;;;;;;5069353;28;20466;-72
2022/05/15 04:50:32;;;;;;;6.40;3.90;;;14.40;68.60;;;;;;5071512;28;20482;-72
2022/05/15 04:53:00;;;;;;;5.90;3.57;;;14.60;68.60;;;;;;5070336;28;20959;-71
2022/05/15 04:55:28;;;;;;;7.90;4.20;;;14.70;68.40;;;;;;5070740;28;20465;-71
2022/05/15 04:57:57;;;;;;;6.07;3.40;;;14.80;68.40;;;;;;5074332;28;20474;-72
2022/05/15 05:00:26;;;;;;;6.83;3.67;;;15.00;68.50;;;;;;5071382;28;20850;-71
2022/05/15 05:02:54;;;;;;;7.90;3.57;;;15.20;68.60;;;;;;5074557;28;20446;-71
2022/05/15 05:05:22;;;;;;;6.30;4.03;;;15.30;68.50;;;;;;5071145;28;21014;-71
2022/05/15 05:07:50;;;;;;;8.50;3.93;;;15.50;68.60;;;;;;5071510;28;20454;-72
2022/05/15 05:10:18;;;;;;;5.97;3.60;;;15.70;68.70;;;;;;5070999;28;20461;-72
2022/05/15 05:12:47;;;;;;;6.30;3.10;;;15.90;68.90;;;;;;5061612;28;21085;-72
2022/05/15 05:15:16;;;;;;;8.00;4.07;;;16.20;69.30;;;;;;5074132;28;20469;-71
2022/05/15 05:17:44;;;;;;;7.43;3.80;;;16.50;70.10;;;;;;5073237;28;20468;-71
2022/05/15 05:20:14;;;;;;;6.87;3.43;;;17.10;69.90;;;;;;5073147;28;20484;-72
2022/05/15 05:22:43;;;;;;;6.77;3.63;;;18.00;68.70;;;;;;5076173;28;20462;-72
2022/05/15 05:25:11;;;;;;;6.00;3.23;;;19.00;66.90;;;;;;5073685;28;20473;-71
2022/05/15 05:27:41;;;;;;;9.40;4.63;;;20.00;65.20;;;;;;5072743;28;20460;-71
2022/05/15 05:30:13;;;;;;;6.73;3.70;;;21.10;63.50;;;;;;5074866;28;20443;-71
2022/05/15 05:32:43;;;;;;;6.03;3.80;;;22.10;61.80;;;;;;5072824;28;20512;-71
2022/05/15 05:35:13;;;;;;;6.10;3.33;;;22.70;60.80;;;;;;5072167;28;20465;-71
2022/05/15 05:37:41;;;;;;;8.50;4.37;;;23.30;60.00;;;;;;5074528;28;20983;-71
2022/05/15 05:40:11;;;;;;;9.40;3.80;;;23.70;59.60;;;;;;5065636;28;21027;-71
2022/05/15 05:42:40;;;;;;;8.93;4.00;;;24.20;59.10;;;;;;5069552;28;20455;-71
2022/05/15 05:45:09;;;;;;;7.70;4.50;;;24.70;58.70;;;;;;5066792;28;20484;-71
2022/05/15 05:47:47;;;;;;;11.13;4.00;;;25.30;58.40;;;;;;5056613;28;20466;-71
2022/05/15 05:50:18;;;;;;;8.20;4.10;;;26.00;57.30;;;;;;5073761;28;21075;-71
2022/05/15 05:52:46;;;;;;;7.53;4.37;;;26.40;56.20;;;;;;5074254;28;21300;-71
2022/05/15 05:55:17;;;;;;;8.73;4.03;;;26.50;55.60;;;;;;5068054;28;20478;-72
2022/05/15 05:57:46;;;;;;;8.87;4.30;;;26.80;55.40;;;;;;5065640;28;20458;-71
2022/05/15 06:00:25;;;;;;;9.63;4.20;;;27.20;54.30;;;;;;5065596;28;20481;-71
2022/05/15 06:04:39;;;;;;;9.37;4.00;;;27.60;53.10;;;;;;5071748;28;20833;-71
2022/05/15 06:05:44;;;;;;;7.80;4.40;;;27.90;52.90;;;;;;5072919;28;20471;-72
2022/05/15 06:08:13;;;;;;;6.10;3.60;;;28.10;52.20;;;;;;5075848;28;21110;-72
2022/05/15 06:10:41;;;;;;;7.57;3.40;;;28.50;51.70;;;;;;5075840;28;20456;-72
2022/05/15 06:13:09;;;;;;;9.83;3.87;;;28.60;50.00;;;;;;5053447;28;20545;-71
2022/05/15 06:15:38;;;;;;;10.47;4.30;;;27.60;48.90;;;;;;5080733;28;20474;-71
2022/05/15 06:18:09;;;;;;;9.30;4.50;;;26.00;49.60;;;;;;5070538;28;20959;-71
2022/05/15 06:20:37;;;;;;;10.17;4.47;;;24.40;50.60;;;;;;5076271;28;20485;-71
2022/05/15 06:23:05;;;;;;;7.40;4.40;;;23.00;51.80;;;;;;5076312;28;20450;-71
2022/05/15 06:25:33;;;;;;;11.40;5.17;;;21.90;53.00;;;;;;5057864;28;20448;-71
2022/05/15 06:28:02;;;;;;;8.73;4.60;;;21.00;54.40;;;;;;5073201;28;20458;-71
2022/05/15 06:30:30;;;;;;;9.53;5.03;;;20.20;55.20;;;;;;5071259;28;20986;-71
2022/05/15 06:32:59;;;;;;;10.20;5.47;;;19.60;57.20;;;;;;5075702;28;20539;-72
2022/05/15 06:35:28;;;;;;;10.13;5.03;;;19.10;57.50;;;;;;5070458;28;20511;-71
2022/05/15 06:37:56;;;;;;;15.03;5.50;;;18.60;59.00;;;;;;5073654;28;20454;-71
2022/05/15 06:40:24;;;;;;;16.40;4.87;;;18.20;60.90;;;;;;5058271;28;20543;-71
2022/05/15 06:42:52;;;;;;;11.73;5.67;;;18.00;61.20;;;;;;5063188;28;21260;-72
2022/05/15 06:45:22;;;;;;;9.03;4.70;;;17.80;60.90;;;;;;5056375;28;20500;-71
2022/05/15 06:47:50;;;;;;;8.63;4.67;;;17.70;62.10;;;;;;5079168;28;20461;-71
2022/05/15 06:50:18;;;;;;;9.97;5.30;;;17.50;62.50;;;;;;5076919;28;20497;-71
2022/05/15 06:52:48;;;;;;;9.23;5.53;;;17.40;63.00;;;;;;5075098;28;20454;-71
2022/05/15 06:55:20;;;;;;;8.90;4.67;;;17.30;63.40;;;;;;5075032;28;20484;-72
2022/05/15 06:57:47;;;;;;;9.50;5.13;;;17.30;64.40;;;;;;5081597;28;20460;-71
2022/05/15 07:00:18;;;;;;;10.60;4.73;;;17.20;64.20;;;;;;5074480;28;20545;-71
2022/05/15 07:02:47;;;;;;;9.10;5.10;;;17.30;64.50;;;;;;5075356;28;20573;-71
2022/05/15 07:05:22;;;;;;;9.47;4.80;;;17.30;65.40;;;;;;5061977;28;20557;-71
2022/05/15 07:07:52;;;;;;;12.40;5.67;;;17.30;64.70;;;;;;5075321;28;20973;-71
2022/05/15 07:10:20;;;;;;;12.97;5.30;;;17.30;65.20;;;;;;5074024;28;20480;-71
2022/05/15 07:12:48;;;;;;;7.87;4.50;;;17.40;65.00;;;;;;5074326;28;20454;-71
2022/05/15 07:15:17;;;;;;;11.03;4.50;;;17.50;66.10;;;;;;5054573;28;20485;-71
2022/05/15 07:17:45;;;;;;;9.43;5.17;;;17.50;65.50;;;;;;5075316;28;20904;-71
2022/05/15 07:20:13;;;;;;;10.23;4.97;;;17.50;65.90;;;;;;5076726;28;20461;-72
2022/05/15 07:22:42;;;;;;;8.70;4.47;;;17.60;65.90;;;;;;5077714;28;20480;-71
2022/05/15 07:25:11;;;;;;;8.63;4.70;;;17.60;66.00;;;;;;5077059;28;20473;-72
2022/05/15 07:27:40;;;;;;;15.87;5.80;;;17.70;66.10;;;;;;5068363;28;20453;-71
2022/05/15 07:30:09;;;;;;;9.13;4.90;;;17.80;66.30;;;;;;5070824;28;20481;-71
2022/05/15 07:32:44;;;;;;;14.87;5.33;;;17.90;67.00;;;;;;5068878;28;20486;-72
2022/05/15 07:35:12;;;;;;;10.90;5.33;;;18.00;66.50;;;;;;5070721;28;20470;-71
2022/05/15 07:37:40;;;;;;;9.90;4.90;;;18.00;66.80;;;;;;5074179;28;20456;-71
2022/05/15 07:40:11;;;;;;;7.67;4.63;;;18.10;66.70;;;;;;5078166;28;20916;-71
2022/05/15 07:42:40;;;;;;;11.20;4.80;;;18.10;66.70;;;;;;5067107;28;20590;-71
2022/05/15 07:45:09;;;;;;;8.97;4.30;;;18.20;66.80;;;;;;5054714;28;20492;-71
2022/05/15 07:47:37;;;;;;;9.20;4.53;;;18.20;66.80;;;;;;5075713;28;20458;-71
2022/05/15 07:50:07;;;;;;;7.77;3.93;;;18.30;66.90;;;;;;5068060;28;20489;-72
2022/05/15 07:52:35;;;;;;;10.20;4.70;;;18.40;66.80;;;;;;5076608;28;20439;-72
2022/05/15 07:55:12;;;;;;;10.30;4.40;;;18.50;66.80;;;;;;5075055;28;20474;-72
2022/05/15 07:57:40;;;;;;;7.33;4.30;;;18.50;66.70;;;;;;5073768;28;20505;-72
2022/05/15 08:00:11;;;;;;;7.13;4.13;;;18.60;66.80;;;;;;5070856;28;20506;-72
2022/05/15 08:02:40;;;;;;;10.47;4.80;;;18.70;66.70;;;;;;5053350;28;21205;-72
2022/05/15 08:08:05;;;;;;;9.80;4.00;;;18.90;66.40;;;;;;5075496;28;20454;-71
2022/05/15 08:10:38;;;;;;;9.77;4.80;;;18.90;66.40;;;;;;5069968;28;20472;-71
2022/05/15 08:13:07;;;;;;;9.87;4.17;;;19.00;66.20;;;;;;5070879;28;20458;-72
2022/05/15 08:15:37;;;;;;;11.67;4.43;;;19.00;66.10;;;;;;5069494;28;20484;-72
2022/05/15 08:23:37;;;;;;;9.73;3.60;;;19.20;65.80;;;;;;5071909;28;20493;-72
2022/05/15 08:26:08;;;;;;;8.57;4.43;;;19.20;65.80;;;;;;5071399;28;21121;-71
2022/05/15 08:28:36;;;;;;;6.93;3.90;;;19.30;65.70;;;;;;5073492;28;20463;-71
2022/05/15 08:31:08;;;;;;;6.13;3.90;;;19.30;65.70;;;;;;5071020;28;21018;-71
2022/05/15 08:33:36;;;;;;;7.77;4.23;;;19.40;65.70;;;;;;5055764;28;21037;-71
2022/05/15 08:36:05;;;;;;;7.70;3.97;;;19.50;65.60;;;;;;5076259;28;20962;-70
2022/05/15 08:38:33;;;;;;;9.73;3.93;;;19.60;65.40;;;;;;5071877;28;20482;-72
2022/05/15 08:41:04;;;;;;;12.43;3.80;;;19.60;65.30;;;;;;5072615;28;20460;-71
2022/05/15 08:43:42;;;;;;;8.70;3.90;;;19.60;65.20;;;;;;5069962;28;20489;-70
2022/05/15 08:46:33;;;;;;;17.13;4.60;;;19.70;65.10;;;;;;5067683;28;20859;-71
2022/05/15 08:49:09;;;;;;;9.67;4.67;;;19.70;65.00;;;;;;5069548;28;21043;-71
2022/05/15 08:51:38;;;;;;;9.10;4.20;;;19.70;65.00;;;;;;5066868;28;21016;-71
2022/05/15 08:54:11;;;;;;;10.33;3.93;;;19.80;65.00;;;;;;5073923;28;20479;-71
2022/05/15 08:56:46;;;;;;;7.70;4.10;;;19.80;65.00;;;;;;5073694;28;20981;-71
2022/05/15 08:59:22;;;;;;;7.83;4.00;;;19.90;64.90;;;;;;5069469;28;20465;-71
2022/05/15 09:01:54;;;;;;;6.90;3.77;;;20.00;64.80;;;;;;5069578;28;20497;-71
2022/05/15 09:04:23;;;;;;;8.53;4.00;;;20.00;64.70;;;;;;5067776;28;21157;-71
2022/05/15 09:07:10;;;;;;;8.57;4.37;;;20.10;64.70;;;;;;5073593;28;20456;-71
2022/05/15 09:09:50;;;;;;;8.93;4.40;;;20.20;64.70;;;;;;5073632;28;20457;-71
2022/05/15 09:12:21;;;;;;;7.13;3.47;;;20.20;64.50;;;;;;5066959;28;20950;-71
2022/05/15 09:15:00;;;;;;;8.20;3.83;;;20.30;64.40;;;;;;5074203;28;20477;-71
2022/05/15 09:17:43;;;;;;;11.20;3.90;;;20.30;64.20;;;;;;5071692;28;20503;-72
2022/05/15 09:20:15;;;;;;;8.87;4.03;;;20.30;64.20;;;;;;5072595;28;20458;-71
2022/05/15 09:22:51;;;;;;;8.80;3.50;;;20.40;64.20;;;;;;5072733;28;20513;-71
2022/05/15 09:25:21;;;;;;;8.20;4.10;;;20.40;64.20;;;;;;5065685;28;20477;-71
2022/05/15 09:28:01;;;;;;;6.53;3.40;;;20.50;64.10;;;;;;5074036;28;20843;-71
2022/05/15 09:30:39;;;;;;;6.17;3.60;;;20.50;64.10;;;;;;5069039;28;20469;-71
2022/05/15 09:33:08;;;;;;;6.13;3.80;;;20.60;64.10;;;;;;5072745;28;20452;-71
2022/05/15 09:35:38;;;;;;;9.80;3.30;;;20.60;64.10;;;;;;5075140;28;20461;-71
2022/05/15 09:43:53;;;;;;;6.23;3.60;;;20.80;63.80;;;;;;5067572;28;20503;-71
2022/05/15 09:46:24;;;;;;;11.50;3.50;;;20.90;63.70;;;;;;5071479;28;20473;-71
2022/05/15 09:48:58;;;;;;;8.67;3.90;;;20.90;63.70;;;;;;5067363;28;20527;-71
2022/05/15 09:51:34;;;;;;;8.00;3.80;;;21.00;63.50;;;;;;5070219;28;20558;-71
2022/05/15 09:54:04;;;;;;;9.80;3.60;;;21.00;63.30;;;;;;5067630;28;20479;-71
2022/05/15 09:56:35;;;;;;;11.40;3.80;;;21.10;63.20;;;;;;5074458;28;20461;-71
2022/05/15 09:59:11;;;;;;;7.53;3.63;;;21.10;63.00;;;;;;5069246;28;20511;-71
2022/05/15 10:01:56;;;;;;;9.70;3.57;;;21.20;62.90;;;;;;5069408;28;20893;-71
2022/05/15 10:04:26;;;;;;;10.63;4.10;;;21.20;62.80;;;;;;5067517;28;20489;-71
2022/05/15 10:06:57;;;;;;;7.50;3.33;;;21.30;62.60;;;;;;5071511;28;20941;-71
2022/05/15 10:09:28;;;;;;;9.40;3.73;;;21.40;62.60;;;;;;5070999;28;20446;-71
2022/05/15 10:12:05;;;;;;;6.73;3.37;;;21.40;62.40;;;;;;5070425;28;20482;-71
2022/05/15 10:14:39;;;;;;;11.63;3.27;;;21.50;61.80;;;;;;5068694;28;20492;-71
2022/05/15 10:17:12;;;;;;;9.80;3.30;;;21.50;61.80;;;;;;5071107;28;20476;-71
2022/05/15 10:19:47;;;;;;;9.00;3.30;;;21.60;61.70;;;;;;5074195;28;20983;-71
2022/05/15 10:22:30;;;;;;;6.87;3.20;;;21.60;61.60;;;;;;5066474;28;20471;-71
2022/05/15 10:25:21;;;;;;;8.43;3.93;;;21.70;61.30;;;;;;5070143;28;21295;-71
2022/05/15 10:28:07;;;;;;;9.13;2.90;;;21.70;61.30;;;;;;5070497;28;20557;-71
2022/05/15 10:30:48;;;;;;;6.53;2.97;;;21.80;61.20;;;;;;5068753;28;20474;-71
2022/05/15 10:33:20;;;;;;;5.97;2.67;;;21.80;60.90;;;;;;5073033;28;20462;-71
2022/05/15 10:35:57;;;;;;;5.77;2.70;;;21.90;60.50;;;;;;5078593;28;20453;-71
2022/05/15 10:38:38;;;;;;;9.53;3.30;;;21.90;60.50;;;;;;5065648;28;20977;-71
2022/05/15 10:41:17;;;;;;;11.03;3.20;;;22.00;60.40;;;;;;5074978;28;20998;-71
2022/05/15 10:43:56;;;;;;;11.83;2.50;;;22.10;59.80;;;;;;5072554;28;20484;-71
2022/05/15 10:46:34;;;;;;;5.93;2.67;;;22.10;59.60;;;;;;5071687;28;20568;-70
2022/05/15 10:49:20;;;;;;;8.30;2.47;;;22.10;59.30;;;;;;5069448;28;20454;-70
2022/05/15 10:52:03;;;;;;;5.23;2.50;;;22.20;59.10;;;;;;5064159;28;20454;-71
2022/05/15 10:57:35;;;;;;;6.70;3.20;;;22.30;58.90;;;;;;5073822;28;20462;-70
2022/05/15 11:00:11;;;;;;;5.60;2.63;;;22.40;58.70;;;;;;5076110;28;20463;-70
2022/05/15 11:03:18;;;;;;;7.80;2.57;;;22.40;58.60;;;;;;5069387;28;20481;-70
2022/05/15 11:06:21;;;;;;;4.53;2.00;;;22.50;58.50;;;;;;5074865;28;20468;-70
2022/05/15 11:08:56;;;;;;;8.70;2.10;;;22.60;57.80;;;;;;5079017;28;20462;-71
2022/05/15 11:11:31;;;;;;;5.40;2.20;;;22.60;57.40;;;;;;5076325;28;20483;-70
2022/05/15 11:14:07;;;;;;;6.00;1.90;;;22.60;57.00;;;;;;5077278;28;20472;-72
2022/05/15 11:16:43;;;;;;;6.53;2.10;;;22.70;56.80;;;;;;5070428;28;20475;-69
2022/05/15 11:19:26;;;;;;;5.27;2.00;;;22.70;56.30;;;;;;5072314;28;20454;-70
2022/05/15 11:22:01;;;;;;;8.37;2.67;;;22.80;56.00;;;;;;5073432;28;20468;-70
2022/05/15 11:24:41;;;;;;;6.73;2.10;;;22.90;55.50;;;;;;5075770;28;20537;-70
2022/05/15 11:27:17;;;;;;;9.13;2.53;;;22.90;55.60;;;;;;5075692;28;20453;-71
2022/05/15 11:29:49;;;;;;;6.50;2.27;;;22.90;55.80;;;;;;5073818;28;20468;-70
2022/05/15 11:32:34;;;;;;;5.10;2.23;;;22.90;55.40;;;;;;5067688;28;20469;-71
2022/05/15 11:35:24;;;;;;;7.57;1.77;;;23.00;54.90;;;;;;5076820;28;20466;-70
2022/05/15 11:38:22;;;;;;;8.93;2.67;;;23.00;54.30;;;;;;5076978;28;20458;-71
2022/05/15 11:40:51;;;;;;;5.83;1.93;;;23.00;54.20;;;;;;5073498;28;20464;-71
2022/05/15 11:43:36;;;;;;;4.73;1.80;;;23.00;54.20;;;;;;5075564;28;20481;-71
2022/05/15 11:46:07;;;;;;;5.63;2.00;;;23.00;53.90;;;;;;5073167;28;21180;-71
2022/05/15 11:48:53;;;;;;;5.90;2.33;;;23.00;54.00;;;;;;5068763;28;21002;-71
2022/05/15 11:51:29;;;;;;;6.40;2.63;;;23.00;53.80;;;;;;5070815;28;20473;-71
2022/05/15 11:54:01;;;;;;;11.50;2.40;;;23.10;53.70;;;;;;5074004;28;20487;-71
2022/05/15 11:56:40;;;;;;;5.20;2.10;;;23.10;53.70;;;;;;5072397;28;20546;-71
2022/05/15 11:59:22;;;;;;;8.50;2.23;;;23.10;53.40;;;;;;5073347;28;20493;-71
2022/05/15 12:01:53;;;;;;;4.63;2.13;;;23.20;53.50;;;;;;5072164;28;20466;-72
2022/05/15 12:04:54;;;;;;;5.87;2.10;;;23.20;53.50;;;;;;5072875;28;20570;-71
2022/05/15 12:07:49;;;;;;;4.77;2.27;;;23.20;53.30;;;;;;5072802;28;20461;-71
2022/05/15 12:10:54;;;;;;;5.53;2.17;;;23.20;53.30;;;;;;5068221;28;20507;-72
2022/05/15 12:13:39;;;;;;;5.07;2.30;;;23.30;53.30;;;;;;5063219;28;20492;-71
2022/05/15 12:16:20;;;;;;;5.40;2.33;;;23.40;52.90;;;;;;5070320;28;20490;-71
2022/05/15 12:19:06;;;;;;;5.67;2.43;;;23.40;53.00;;;;;;5071462;28;20902;-71
2022/05/15 12:21:41;;;;;;;7.97;2.20;;;23.40;52.80;;;;;;5071625;28;20471;-70
2022/05/15 12:24:30;;;;;;;9.63;2.93;;;23.50;52.60;;;;;;5070760;28;20998;-71
2022/05/15 12:27:17;;;;;;;7.47;2.37;;;23.60;52.50;;;;;;5072005;28;20466;-71
2022/05/15 12:29:58;;;;;;;5.07;2.23;;;23.60;52.40;;;;;;5070256;28;20466;-71
2022/05/15 12:32:32;;;;;;;6.17;2.83;;;23.50;52.50;;;;;;5072196;28;20483;-71
2022/05/15 12:35:00;;;;;;;5.13;2.03;;;23.60;52.30;;;;;;5067174;28;20485;-71
2022/05/15 12:37:31;;;;;;;6.20;2.03;;;23.60;52.10;;;;;;5067266;28;21005;-70
2022/05/15 12:40:01;;;;;;;5.40;2.03;;;23.70;52.10;;;;;;5070426;28;20465;-71
2022/05/15 12:42:38;;;;;;;5.90;2.80;;;23.70;51.60;;;;;;5077954;28;20516;-71
2022/05/15 12:45:10;;;;;;;6.73;2.50;;;23.70;52.00;;;;;;5074633;28;21152;-71
2022/05/15 12:47:39;;;;;;;9.77;2.53;;;23.70;52.20;;;;;;5074563;28;20454;-71
2022/05/15 12:50:14;;;;;;;6.47;2.40;;;23.80;52.20;;;;;;5077117;28;20461;-71
2022/05/15 12:52:43;;;;;;;5.30;1.90;;;23.80;51.90;;;;;;5067220;28;20541;-71
2022/05/15 12:55:21;;;;;;;5.80;2.30;;;23.80;51.60;;;;;;5071312;28;20852;-70
2022/05/15 12:57:52;;;;;;;5.30;1.60;;;23.80;50.70;;;;;;5071562;28;20446;-71
2022/05/15 13:00:24;;;;;;;6.30;2.40;;;23.90;50.40;;;;;;5066682;28;20443;-71
2022/05/15 13:02:58;;;;;;;7.33;2.40;;;24.00;50.90;;;;;;5070079;28;21007;-72
2022/05/15 13:05:29;;;;;;;8.20;2.30;;;24.00;50.80;;;;;;5072648;28;20994;-71
2022/05/15 13:07:59;;;;;;;6.73;2.43;;;24.10;50.70;;;;;;5075270;28;20457;-71
2022/05/15 13:10:33;;;;;;;6.10;2.60;;;24.10;50.60;;;;;;5076144;28;20457;-71
2022/05/15 13:13:05;;;;;;;6.67;2.57;;;24.10;50.70;;;;;;5076623;28;20471;-72
2022/05/15 13:15:36;;;;;;;6.63;2.60;;;24.20;51.10;;;;;;5075391;28;20465;-71
2022/05/15 13:18:08;;;;;;;7.27;2.50;;;24.30;51.20;;;;;;5075686;28;20465;-71
2022/05/15 13:20:39;;;;;;;5.40;2.33;;;24.30;51.20;;;;;;5070400;28;20541;-70
2022/05/15 13:23:11;;;;;;;6.43;2.50;;;24.30;51.30;;;;;;5068448;28;20525;-71
2022/05/15 13:25:41;;;;;;;7.90;2.63;;;24.30;51.30;;;;;;5074004;28;20505;-71
2022/05/15 13:28:12;;;;;;;8.43;2.57;;;24.30;51.40;;;;;;5076440;28;20543;-71
2022/05/15 13:30:41;;;;;;;6.30;2.53;;;24.30;51.50;;;;;;5066266;28;20849;-72